createdAt,value
2022-08-18T00:01:16.849Z,8.10
2022-08-18T00:03:55.569Z,10.27
2022-08-18T00:06:30.060Z,7.13
2022-08-18T00:08:59.990Z,6.47
2022-08-18T00:11:28.791Z,8.32
2022-08-18T00:14:13.813Z,9.38
2022-08-18T00:16:51.919Z,11.85
2022-08-18T00:19:20.112Z,10.05
2022-08-18T00:22:15.170Z,7.78
2022-08-18T00:24:47.458Z,11.73
2022-08-18T00:27:23.938Z,9.05
2022-08-18T00:29:59.415Z,9.05
2022-08-18T00:32:30.139Z,9.20
2022-08-18T00:34:58.506Z,9.05
2022-08-18T00:37:28.084Z,9.77
2022-08-18T00:39:56.146Z,10.82
2022-08-18T00:42:27.353Z,11.88
2022-08-18T00:45:02.476Z,9.27
2022-08-18T00:47:33.123Z,8.85
2022-08-18T00:50:15.298Z,8.60
2022-08-18T00:52:49.040Z,10.38
2022-08-18T00:55:19.523Z,8.15
2022-08-18T00:57:52.062Z,9.45
2022-08-18T01:00:20.497Z,9.40
2022-08-18T01:02:55.559Z,8.07
2022-08-18T01:05:30.433Z,10.45
2022-08-18T01:07:59.990Z,12.02
2022-08-18T01:10:28.250Z,9.90
2022-08-18T01:12:58.506Z,8.95
2022-08-18T01:15:30.139Z,11.88
2022-08-18T01:18:17.854Z,9.18
2022-08-18T01:21:13.993Z,8.88
2022-08-18T01:23:43.747Z,9.95
2022-08-18T01:26:11.546Z,10.48
2022-08-18T01:28:42.320Z,7.72
2022-08-18T01:31:12.133Z,12.77
2022-08-18T01:33:44.892Z,15.15
2022-08-18T01:36:18.017Z,12.57
2022-08-18T01:38:50.277Z,14.00
2022-08-18T01:41:26.908Z,11.30
2022-08-18T01:43:56.513Z,10.00
2022-08-18T01:46:24.687Z,11.85
2022-08-18T01:48:53.692Z,9.00
2022-08-18T01:51:39.615Z,11.35
2022-08-18T01:54:14.067Z,13.00
2022-08-18T01:56:43.386Z,15.20
2022-08-18T01:59:14.823Z,10.27
2022-08-18T02:01:48.263Z,10.35
2022-08-18T02:04:37.063Z,11.88
2022-08-18T02:07:09.129Z,12.50
2022-08-18T02:09:41.094Z,10.70
2022-08-18T02:12:09.570Z,12.75
2022-08-18T02:14:38.592Z,13.02
2022-08-18T02:17:08.957Z,9.57
2022-08-18T02:19:39.489Z,10.23
2022-08-18T02:22:09.358Z,17.67
2022-08-18T02:24:39.368Z,10.05
2022-08-18T02:27:08.305Z,12.18
2022-08-18T02:29:37.366Z,11.45
2022-08-18T02:32:06.944Z,10.80
2022-08-18T02:34:35.318Z,14.15
2022-08-18T02:37:04.441Z,12.85
2022-08-18T02:39:35.949Z,12.73
2022-08-18T02:42:05.896Z,13.52
2022-08-18T02:44:34.112Z,10.10
2022-08-18T02:47:02.963Z,11.38
2022-08-18T02:49:31.108Z,11.90
2022-08-18T02:51:59.622Z,10.30
2022-08-18T02:54:27.749Z,11.18
2022-08-18T02:56:57.172Z,10.65
2022-08-18T02:59:28.475Z,12.68
2022-08-18T03:02:00.346Z,14.77
2022-08-18T03:04:31.427Z,14.23
2022-08-18T03:07:01.455Z,12.45
2022-08-18T03:09:30.535Z,11.40
2022-08-18T03:11:59.265Z,11.88
2022-08-18T03:14:29.459Z,14.93
2022-08-18T03:16:57.825Z,10.25
2022-08-18T03:19:28.708Z,13.50
2022-08-18T03:21:59.331Z,13.00
2022-08-18T03:27:01.869Z,12.98
2022-08-18T03:29:32.915Z,14.02
2022-08-18T03:32:02.272Z,11.48
2022-08-18T03:34:32.334Z,15.18
2022-08-18T03:37:00.928Z,13.13
2022-08-18T03:39:29.772Z,15.05
2022-08-18T03:42:01.673Z,14.95
2022-08-18T03:44:33.876Z,12.57
2022-08-18T03:47:03.151Z,12.57
2022-08-18T03:49:32.416Z,15.98
2022-08-18T03:52:01.476Z,12.90
2022-08-18T03:54:29.875Z,16.30
2022-08-18T03:56:58.555Z,19.05
2022-08-18T03:59:27.736Z,18.17
2022-08-18T04:01:57.347Z,19.98
2022-08-18T04:04:28.328Z,17.35
2022-08-18T04:07:00.625Z,15.77
2022-08-18T04:09:31.954Z,14.32
2022-08-18T04:12:06.021Z,15.07
2022-08-18T04:14:35.040Z,17.30
2022-08-18T04:17:04.681Z,15.60
2022-08-18T04:19:37.475Z,12.68
2022-08-18T04:22:06.831Z,15.50
2022-08-18T04:24:35.854Z,12.38
2022-08-18T04:27:05.902Z,13.35
2022-08-18T04:29:34.138Z,14.38
2022-08-18T04:32:05.152Z,15.63
2022-08-18T04:34:34.127Z,14.95
2022-08-18T04:37:02.953Z,19.35
2022-08-18T04:39:31.627Z,14.68
2022-08-18T04:42:01.638Z,14.77
2022-08-18T04:44:29.762Z,12.98
2022-08-18T04:46:57.985Z,16.80
2022-08-18T04:49:27.948Z,14.07
2022-08-18T04:52:27.062Z,12.68
2022-08-18T04:55:03.141Z,12.40
2022-08-18T04:57:34.746Z,13.38
2022-08-18T05:00:05.616Z,13.13
2022-08-18T05:02:33.921Z,12.63
2022-08-18T05:05:04.237Z,16.17
2022-08-18T05:07:32.758Z,18.42
2022-08-18T05:10:00.854Z,13.15
2022-08-18T05:12:29.564Z,13.18
2022-08-18T05:14:57.979Z,16.20
2022-08-18T05:17:29.131Z,14.07
2022-08-18T05:20:00.764Z,14.80
2022-08-18T05:22:32.085Z,14.68
2022-08-18T05:25:01.151Z,12.07
2022-08-18T05:27:34.059Z,14.98
2022-08-18T05:30:02.494Z,15.80
2022-08-18T05:32:48.198Z,14.73
2022-08-18T05:35:23.269Z,14.60
2022-08-18T05:38:22.541Z,16.25
2022-08-18T05:41:07.567Z,13.07
2022-08-18T05:43:51.982Z,17.10
2022-08-18T05:46:25.908Z,15.73
2022-08-18T05:48:54.060Z,13.85
2022-08-18T05:51:34.229Z,13.13
2022-08-18T05:54:25.515Z,17.50
2022-08-18T05:56:57.265Z,22.10
2022-08-18T05:59:28.665Z,18.50
2022-08-18T06:02:07.958Z,23.48
2022-08-18T06:04:44.026Z,18.77
2022-08-18T06:07:17.182Z,17.40
2022-08-18T06:09:52.604Z,13.43
2022-08-18T06:12:30.026Z,25.45
2022-08-18T06:15:06.643Z,19.52
2022-08-18T06:17:58.980Z,21.80
2022-08-18T06:20:33.771Z,15.35
2022-08-18T06:23:18.734Z,19.42
2022-08-18T06:26:02.977Z,16.92
2022-08-18T06:28:42.038Z,20.33
2022-08-18T06:31:17.742Z,20.27
2022-08-18T06:33:58.017Z,21.33
2022-08-18T06:36:38.605Z,20.08
2022-08-18T06:39:18.517Z,14.30
2022-08-18T06:41:53.727Z,17.20
2022-08-18T06:44:31.520Z,17.48
2022-08-18T06:47:06.490Z,14.18
2022-08-18T06:49:40.913Z,13.93
2022-08-18T06:52:29.185Z,15.48
2022-08-18T06:54:59.765Z,16.40
2022-08-18T06:57:34.622Z,15.43
2022-08-18T07:00:10.058Z,13.73
2022-08-18T07:02:50.920Z,15.90
2022-08-18T07:05:25.249Z,13.48
2022-08-18T07:08:14.541Z,16.55
2022-08-18T07:10:45.119Z,11.73
2022-08-18T07:13:21.592Z,21.27
2022-08-18T07:15:50.914Z,17.15
2022-08-18T07:18:25.431Z,14.45
2022-08-18T07:20:56.018Z,10.90
2022-08-18T07:23:30.527Z,17.33
2022-08-18T07:26:09.732Z,17.88
2022-08-18T07:28:41.922Z,16.77
2022-08-18T07:31:17.297Z,20.38
2022-08-18T07:33:52.367Z,15.27
2022-08-18T07:36:24.418Z,17.27
2022-08-18T07:38:58.148Z,17.77
2022-08-18T07:41:31.619Z,14.70
2022-08-18T07:44:13.804Z,13.85
2022-08-18T07:46:51.680Z,13.38
2022-08-18T07:49:22.753Z,13.98
2022-08-18T07:51:58.037Z,17.95
2022-08-18T07:54:50.969Z,19.50
2022-08-18T07:57:30.793Z,15.07
2022-08-18T08:00:20.607Z,16.25
2022-08-18T08:03:01.916Z,15.75
2022-08-18T08:05:43.611Z,11.07
2022-08-18T08:08:25.406Z,19.05
2022-08-18T08:11:06.197Z,17.17
2022-08-18T08:13:55.095Z,24.35
2022-08-18T08:16:36.526Z,15.60
2022-08-18T08:19:16.646Z,14.85
2022-08-18T08:21:53.521Z,16.67
2022-08-18T08:24:33.812Z,13.50
2022-08-18T08:27:10.147Z,15.10
2022-08-18T08:29:46.205Z,21.45
2022-08-18T08:32:22.199Z,12.65
2022-08-18T08:34:55.580Z,15.57
2022-08-18T08:37:41.854Z,11.48
2022-08-18T08:40:17.209Z,11.70
2022-08-18T08:42:52.615Z,12.30
2022-08-18T08:45:25.001Z,13.50
2022-08-18T08:48:09.009Z,11.87
2022-08-18T08:50:46.503Z,12.77
2022-08-18T08:53:24.625Z,18.17
2022-08-18T08:56:02.201Z,16.30
2022-08-18T08:58:35.958Z,13.82
2022-08-18T09:01:05.061Z,15.90
2022-08-18T09:03:44.362Z,17.52
2022-08-18T09:06:28.166Z,14.68
2022-08-18T09:09:34.596Z,14.13
2022-08-18T09:12:24.838Z,10.57
2022-08-18T09:15:19.319Z,11.73
2022-08-18T09:18:22.326Z,13.48
2022-08-18T09:20:59.865Z,12.47
2022-08-18T09:23:35.144Z,13.80
2022-08-18T09:26:25.335Z,13.32
2022-08-18T09:28:58.380Z,11.75
2022-08-18T09:34:33.466Z,11.25
2022-08-18T09:37:12.866Z,12.00
2022-08-18T09:40:11.041Z,11.35
2022-08-18T09:42:49.888Z,13.40
2022-08-18T09:45:57.614Z,12.70
2022-08-18T09:48:32.708Z,8.90
2022-08-18T09:51:24.742Z,9.50
2022-08-18T09:54:21.136Z,10.45
2022-08-18T09:57:19.241Z,12.32
2022-08-18T10:00:12.736Z,11.23
2022-08-18T10:03:26.072Z,11.48
2022-08-18T10:06:06.437Z,12.75
2022-08-18T10:09:37.967Z,9.65
2022-08-18T10:12:42.439Z,11.35
2022-08-18T10:15:39.210Z,19.13
2022-08-18T10:18:43.923Z,14.48
2022-08-18T10:21:21.070Z,8.00
2022-08-18T10:24:08.535Z,11.85
2022-08-18T10:30:01.714Z,9.88
2022-08-18T10:32:54.749Z,13.07
2022-08-18T10:36:07.333Z,8.00
2022-08-18T10:38:48.904Z,8.35
2022-08-18T10:41:31.491Z,6.80
2022-08-18T10:44:20.899Z,12.87
2022-08-18T10:46:53.310Z,11.68
2022-08-18T10:49:26.406Z,9.05
2022-08-18T10:52:47.222Z,9.18
2022-08-18T10:58:47.828Z,11.95
2022-08-18T11:01:39.370Z,9.73
2022-08-18T11:07:15.847Z,10.85
2022-08-18T11:09:57.271Z,11.40
2022-08-18T11:12:51.730Z,9.80
2022-08-18T11:15:25.662Z,7.25
2022-08-18T11:18:06.349Z,6.70
2022-08-18T11:20:39.581Z,11.18
2022-08-18T11:23:15.737Z,13.60
2022-08-18T11:25:44.996Z,8.35
2022-08-18T11:28:18.487Z,9.70
2022-08-18T11:30:49.286Z,10.40
2022-08-18T11:33:23.010Z,14.95
2022-08-18T11:35:57.858Z,7.95
2022-08-18T11:38:29.431Z,11.43
2022-08-18T11:41:14.296Z,8.65
2022-08-18T11:43:47.672Z,8.98
2022-08-18T11:46:29.788Z,6.82
2022-08-18T11:49:04.470Z,5.13
2022-08-18T11:51:35.048Z,5.07
2022-08-18T11:54:21.788Z,7.35
2022-08-18T11:56:51.716Z,8.20
2022-08-18T11:59:53.818Z,8.68
2022-08-18T12:02:22.918Z,7.18
2022-08-18T12:04:57.560Z,12.90
2022-08-18T12:07:30.990Z,4.40
2022-08-18T12:10:21.184Z,6.00
2022-08-18T12:12:57.631Z,6.32
2022-08-18T12:18:28.977Z,8.32
2022-08-18T12:21:03.270Z,7.93
2022-08-18T12:23:39.174Z,5.88
2022-08-18T12:29:08.709Z,6.72
2022-08-18T12:31:42.781Z,7.28
2022-08-18T12:34:18.080Z,9.10
2022-08-18T12:36:58.489Z,5.80
2022-08-18T12:39:26.828Z,6.13
2022-08-18T12:41:54.994Z,4.25
2022-08-18T12:44:23.307Z,9.68
2022-08-18T12:46:56.126Z,9.55
2022-08-18T12:49:26.564Z,9.63
2022-08-18T12:51:58.435Z,9.43
2022-08-18T12:54:26.813Z,7.35
2022-08-18T12:56:57.698Z,6.95
2022-08-18T12:59:26.410Z,5.68
2022-08-18T13:02:01.603Z,6.70
2022-08-18T13:04:29.865Z,8.30
2022-08-18T13:07:05.824Z,7.43
2022-08-18T13:09:52.530Z,6.47
2022-08-18T13:12:21.887Z,8.68
2022-08-18T13:14:51.302Z,8.65
2022-08-18T13:17:32.495Z,6.82
2022-08-18T13:20:03.863Z,6.88
2022-08-18T13:22:34.023Z,10.30
2022-08-18T13:25:04.028Z,6.93
2022-08-18T13:27:35.822Z,10.80
2022-08-18T13:30:16.614Z,7.00
2022-08-18T13:33:00.659Z,6.03
2022-08-18T13:35:38.396Z,10.10
2022-08-18T13:38:20.833Z,8.70
2022-08-18T13:40:51.038Z,8.45
2022-08-18T13:43:23.579Z,8.50
2022-08-18T13:45:52.962Z,6.82
2022-08-18T13:48:26.231Z,7.70
2022-08-18T13:50:56.773Z,7.05
2022-08-18T13:53:28.729Z,10.32
2022-08-18T13:55:59.351Z,10.15
2022-08-18T13:58:30.504Z,10.52
2022-08-18T14:01:22.537Z,9.07
2022-08-18T14:03:50.149Z,16.38
2022-08-18T14:06:22.609Z,7.18
2022-08-18T14:08:54.913Z,8.73
2022-08-18T14:11:32.862Z,9.80
2022-08-18T14:14:02.513Z,13.75
2022-08-18T14:16:31.249Z,11.77
2022-08-18T14:19:22.920Z,6.03
2022-08-18T14:22:11.600Z,11.77
2022-08-18T14:25:02.855Z,5.10
2022-08-18T14:27:35.101Z,7.93
2022-08-18T14:30:06.828Z,9.65
2022-08-18T14:32:36.362Z,11.35
2022-08-18T14:36:04.143Z,13.30
2022-08-18T14:37:56.256Z,12.10
2022-08-18T14:40:26.772Z,8.82
2022-08-18T14:42:55.739Z,11.95
2022-08-18T14:45:31.791Z,8.52
2022-08-18T14:48:07.537Z,7.80
2022-08-18T14:50:44.855Z,8.95
2022-08-18T14:53:20.218Z,7.63
2022-08-18T14:55:52.533Z,8.77
2022-08-18T14:58:25.315Z,5.97
2022-08-18T15:00:56.295Z,12.05
2022-08-18T15:03:31.203Z,10.38
2022-08-18T15:06:00.747Z,8.52
2022-08-18T15:08:35.817Z,6.40
2022-08-18T15:11:11.860Z,7.72
2022-08-18T15:13:45.103Z,9.98
2022-08-18T15:16:14.209Z,8.43
2022-08-18T15:18:42.631Z,11.35
2022-08-18T15:21:38.504Z,6.45
2022-08-18T15:24:25.911Z,7.50
2022-08-18T15:27:05.447Z,6.55
2022-08-18T15:29:36.950Z,7.65
2022-08-18T15:32:10.486Z,8.80
2022-08-18T15:34:46.050Z,11.43
2022-08-18T15:37:19.533Z,8.25
2022-08-18T15:39:55.438Z,12.20
2022-08-18T15:42:25.723Z,10.35
2022-08-18T15:44:55.546Z,6.90
2022-08-18T15:47:25.461Z,7.75
2022-08-18T15:49:57.282Z,6.82
2022-08-18T15:52:26.311Z,8.77
2022-08-18T15:54:58.333Z,8.23
2022-08-18T15:57:39.365Z,11.77
2022-08-18T16:00:12.070Z,5.60
2022-08-18T16:02:44.595Z,11.73
2022-08-18T16:05:17.186Z,7.03
2022-08-18T16:07:46.054Z,9.60
2022-08-18T16:10:15.416Z,7.30
2022-08-18T16:12:46.055Z,9.40
2022-08-18T16:15:19.846Z,5.57
2022-08-18T16:17:52.049Z,7.30
2022-08-18T16:20:21.313Z,7.60
2022-08-18T16:22:49.748Z,7.85
2022-08-18T16:25:18.509Z,7.72
2022-08-18T16:27:48.908Z,6.50
2022-08-18T16:30:19.689Z,4.72
2022-08-18T16:32:47.913Z,7.60
2022-08-18T16:35:18.733Z,7.30
2022-08-18T16:37:47.753Z,12.18
2022-08-18T16:40:16.299Z,8.95
2022-08-18T16:42:44.705Z,13.93
2022-08-18T16:45:14.971Z,9.82
2022-08-18T16:47:43.037Z,12.25
2022-08-18T16:50:14.486Z,13.57
2022-08-18T16:52:43.191Z,8.30
2022-08-18T16:55:13.614Z,13.18
2022-08-18T16:58:00.475Z,6.70
2022-08-18T17:00:54.623Z,10.90
2022-08-18T17:03:41.480Z,7.03
2022-08-18T17:06:12.196Z,12.00
2022-08-18T17:08:40.868Z,13.07
2022-08-18T17:11:13.964Z,8.70
2022-08-18T17:13:43.296Z,9.95
2022-08-18T17:16:13.694Z,7.88
2022-08-18T17:18:42.864Z,17.40
2022-08-18T17:21:13.237Z,11.98
2022-08-18T17:23:42.529Z,6.90
2022-08-18T17:26:18.530Z,9.20
2022-08-18T17:28:52.601Z,11.00
2022-08-18T17:31:24.646Z,12.57
2022-08-18T17:33:56.898Z,9.77
2022-08-18T17:36:34.874Z,9.57
2022-08-18T17:39:05.447Z,13.68
2022-08-18T17:41:56.121Z,15.10
2022-08-18T17:44:31.173Z,13.65
2022-08-18T17:47:03.969Z,18.05
2022-08-18T17:50:27.137Z,18.83
2022-08-18T17:53:05.325Z,12.68
2022-08-18T17:55:40.300Z,18.42
2022-08-18T17:58:16.149Z,13.35
2022-08-18T18:00:45.468Z,9.48
2022-08-18T18:03:15.118Z,10.85
2022-08-18T18:05:56.449Z,8.07
2022-08-18T18:08:55.036Z,9.10
2022-08-18T18:11:35.119Z,11.73
2022-08-18T18:14:29.215Z,11.55
2022-08-18T18:17:02.509Z,18.23
2022-08-18T18:19:33.485Z,15.05
2022-08-18T18:22:08.362Z,11.43
2022-08-18T18:24:39.456Z,10.77
2022-08-18T18:27:26.548Z,15.98
2022-08-18T18:29:58.081Z,12.13
2022-08-18T18:32:30.425Z,15.95
2022-08-18T18:35:14.141Z,14.90
2022-08-18T18:37:50.108Z,14.23
2022-08-18T18:40:35.019Z,19.60
2022-08-18T18:43:22.217Z,19.08
2022-08-18T18:46:18.362Z,19.08
2022-08-18T18:48:56.778Z,16.75
2022-08-18T18:51:33.537Z,16.83
2022-08-18T18:54:15.200Z,22.02
2022-08-18T18:56:52.888Z,25.77
2022-08-18T18:59:35.585Z,19.20
2022-08-18T19:02:34.160Z,19.83
2022-08-18T19:05:16.674Z,16.85
2022-08-18T19:07:57.990Z,16.58
2022-08-18T19:10:34.916Z,16.10
2022-08-18T19:13:32.416Z,13.77
2022-08-18T19:16:05.028Z,18.23
2022-08-18T19:22:02.652Z,16.90
2022-08-18T19:24:06.844Z,16.70
2022-08-18T19:26:41.279Z,14.77
2022-08-18T19:29:20.930Z,21.73
2022-08-18T19:31:53.716Z,12.60
2022-08-18T19:34:30.059Z,13.40
2022-08-18T19:37:05.735Z,12.65
2022-08-18T19:39:43.720Z,13.52
2022-08-18T19:42:19.552Z,14.38
2022-08-18T19:45:14.972Z,12.35
2022-08-18T19:47:50.110Z,13.40
2022-08-18T19:50:28.886Z,10.10
2022-08-18T19:53:21.980Z,12.18
2022-08-18T19:56:11.769Z,13.18
2022-08-18T19:59:18.676Z,15.35
2022-08-18T20:02:02.817Z,9.40
2022-08-18T20:04:46.990Z,11.32
2022-08-18T20:07:42.053Z,11.88
2022-08-18T20:10:44.230Z,11.45
2022-08-18T20:13:28.165Z,9.00
2022-08-18T20:16:14.116Z,11.82
2022-08-18T20:18:44.517Z,12.10
2022-08-18T20:21:41.714Z,12.73
2022-08-18T20:24:41.686Z,16.10
2022-08-18T20:27:23.894Z,9.95
2022-08-18T20:30:21.852Z,14.15
2022-08-18T20:33:14.411Z,16.10
2022-08-18T20:35:47.830Z,10.93
2022-08-18T20:38:29.199Z,10.00
2022-08-18T20:40:59.775Z,8.45
2022-08-18T20:43:32.231Z,11.07
2022-08-18T20:46:23.692Z,13.52
2022-08-18T20:49:10.198Z,11.88
2022-08-18T20:51:52.375Z,10.50
2022-08-18T20:54:34.619Z,11.38
2022-08-18T20:57:10.021Z,9.77
2022-08-18T20:59:45.382Z,10.13
2022-08-18T21:02:28.259Z,9.93
2022-08-18T21:05:00.235Z,9.50
2022-08-18T21:07:36.271Z,7.82
2022-08-18T21:10:13.799Z,8.52
2022-08-18T21:12:52.494Z,10.10
2022-08-18T21:15:24.409Z,9.80
2022-08-18T21:18:01.571Z,15.48
2022-08-18T21:20:31.470Z,9.50
2022-08-18T21:23:05.790Z,9.60
2022-08-18T21:25:34.511Z,7.75
2022-08-18T21:28:07.001Z,14.15
2022-08-18T21:30:35.451Z,10.40
2022-08-18T21:33:20.051Z,9.35
2022-08-18T21:35:48.359Z,15.63
2022-08-18T21:38:16.581Z,11.57
2022-08-18T21:40:49.276Z,12.43
2022-08-18T21:43:38.054Z,13.85
2022-08-18T21:46:06.301Z,11.43
2022-08-18T21:48:36.231Z,12.32
2022-08-18T21:51:06.472Z,9.07
2022-08-18T21:53:38.347Z,13.23
2022-08-18T21:56:06.766Z,10.38
2022-08-18T21:58:42.308Z,11.10
2022-08-18T22:01:24.818Z,14.05
2022-08-18T22:03:56.104Z,9.77
2022-08-18T22:06:31.481Z,9.00
2022-08-18T22:09:24.421Z,11.40
2022-08-18T22:12:46.011Z,9.63
2022-08-18T22:15:18.706Z,10.10
2022-08-18T22:17:57.902Z,11.90
2022-08-18T22:20:48.350Z,10.65
2022-08-18T22:23:44.411Z,13.52
2022-08-18T22:26:18.480Z,10.80
2022-08-18T22:29:03.862Z,13.77
2022-08-18T22:31:33.929Z,10.65
2022-08-18T22:34:05.179Z,12.20
2022-08-18T22:36:37.346Z,12.10
2022-08-18T22:39:09.596Z,10.75
2022-08-18T22:41:38.439Z,12.02
2022-08-18T22:44:08.651Z,13.20
2022-08-18T22:46:36.967Z,10.48
2022-08-18T22:49:05.478Z,11.85
2022-08-18T22:51:37.037Z,11.02
2022-08-18T22:54:08.246Z,10.52
2022-08-18T22:56:37.873Z,13.88
2022-08-18T22:59:15.612Z,11.30
2022-08-18T23:01:46.256Z,12.52
2022-08-18T23:04:16.351Z,12.50
2022-08-18T23:06:51.427Z,11.90
2022-08-18T23:09:21.935Z,16.48
2022-08-18T23:11:50.246Z,11.27
2022-08-18T23:14:20.116Z,13.95
2022-08-18T23:16:48.295Z,12.38
2022-08-18T23:19:18.017Z,11.40
2022-08-18T23:21:46.985Z,14.23
2022-08-18T23:24:16.914Z,10.30
2022-08-18T23:26:45.185Z,14.30
2022-08-18T23:29:14.425Z,10.88
2022-08-18T23:31:45.351Z,13.82
2022-08-18T23:34:17.402Z,12.63
2022-08-18T23:36:46.502Z,11.95
2022-08-18T23:39:15.091Z,12.07
2022-08-18T23:41:43.474Z,9.52
2022-08-18T23:44:14.921Z,14.48
2022-08-18T23:46:45.102Z,13.27
2022-08-18T23:49:15.069Z,10.77
2022-08-18T23:51:46.580Z,9.85
2022-08-18T23:54:18.076Z,9.05
2022-08-18T23:56:47.066Z,9.63
2022-08-18T23:59:17.219Z,13.13
